sensor_id;sensor_type;location;lat;lon;timestamp;temperature;humidity
12926;DHT22;6529;50.566;9.774;2023-03-08T00:01:37;1.30;99.90
12926;DHT22;6529;50.566;9.774;2023-03-08T00:04:03;1.40;99.90
12926;DHT22;6529;50.566;9.774;2023-03-08T00:06:28;1.40;99.90
12926;DHT22;6529;50.566;9.774;2023-03-08T00:08:56;1.40;99.90
12926;DHT22;6529;50.566;9.774;2023-03-08T00:11:23;1.40;99.90
12926;DHT22;6529;50.566;9.774;2023-03-08T00:13:49;1.40;99.90
12926;DHT22;6529;50.566;9.774;2023-03-08T00:16:15;1.50;99.90
12926;DHT22;6529;50.566;9.774;2023-03-08T00:18:41;1.50;99.90
12926;DHT22;6529;50.566;9.774;2023-03-08T00:21:11;1.50;99.90
12926;DHT22;6529;50.566;9.774;2023-03-08T00:23:38;1.50;99.90
12926;DHT22;6529;50.566;9.774;2023-03-08T00:26:04;1.50;99.90
12926;DHT22;6529;50.566;9.774;2023-03-08T00:28:30;1.50;99.90
12926;DHT22;6529;50.566;9.774;2023-03-08T00:31:03;1.50;99.90
12926;DHT22;6529;50.566;9.774;2023-03-08T00:33:29;1.50;99.90
12926;DHT22;6529;50.566;9.774;2023-03-08T00:38:26;1.40;99.90
12926;DHT22;6529;50.566;9.774;2023-03-08T00:40:52;1.40;99.90
12926;DHT22;6529;50.566;9.774;2023-03-08T00:43:18;1.40;99.90
12926;DHT22;6529;50.566;9.774;2023-03-08T00:45:44;1.40;99.90
12926;DHT22;6529;50.566;9.774;2023-03-08T00:48:10;1.40;99.90
12926;DHT22;6529;50.566;9.774;2023-03-08T00:50:36;1.40;99.90
12926;DHT22;6529;50.566;9.774;2023-03-08T00:53:01;1.40;99.90
12926;DHT22;6529;50.566;9.774;2023-03-08T00:55:28;1.30;99.90
12926;DHT22;6529;50.566;9.774;2023-03-08T00:57:53;1.30;99.90
12926;DHT22;6529;50.566;9.774;2023-03-08T01:00:19;1.40;99.90
12926;DHT22;6529;50.566;9.774;2023-03-08T01:02:45;1.40;99.90
12926;DHT22;6529;50.566;9.774;2023-03-08T01:05:10;1.40;99.90
12926;DHT22;6529;50.566;9.774;2023-03-08T01:07:36;1.40;99.90
12926;DHT22;6529;50.566;9.774;2023-03-08T01:10:02;1.40;99.90
12926;DHT22;6529;50.566;9.774;2023-03-08T01:12:31;1.40;99.90
12926;DHT22;6529;50.566;9.774;2023-03-08T01:14:57;1.50;99.90
12926;DHT22;6529;50.566;9.774;2023-03-08T01:17:23;1.40;99.90
12926;DHT22;6529;50.566;9.774;2023-03-08T01:19:48;1.40;99.90
12926;DHT22;6529;50.566;9.774;2023-03-08T01:22:14;1.40;99.90
12926;DHT22;6529;50.566;9.774;2023-03-08T01:24:43;1.40;99.90
12926;DHT22;6529;50.566;9.774;2023-03-08T01:27:09;1.40;99.90
12926;DHT22;6529;50.566;9.774;2023-03-08T01:29:35;1.40;99.90
12926;DHT22;6529;50.566;9.774;2023-03-08T01:32:00;1.40;99.90
12926;DHT22;6529;50.566;9.774;2023-03-08T01:34:26;1.40;99.90
12926;DHT22;6529;50.566;9.774;2023-03-08T01:36:52;1.50;99.90
12926;DHT22;6529;50.566;9.774;2023-03-08T01:39:17;1.50;99.90
12926;DHT22;6529;50.566;9.774;2023-03-08T01:41:43;1.40;99.90
12926;DHT22;6529;50.566;9.774;2023-03-08T01:44:16;1.50;99.90
12926;DHT22;6529;50.566;9.774;2023-03-08T01:46:43;1.40;99.90
12926;DHT22;6529;50.566;9.774;2023-03-08T01:56:40;1.50;99.90
12926;DHT22;6529;50.566;9.774;2023-03-08T01:59:06;1.60;99.90
12926;DHT22;6529;50.566;9.774;2023-03-08T02:01:33;1.60;99.90
12926;DHT22;6529;50.566;9.774;2023-03-08T02:03:59;1.60;99.90
12926;DHT22;6529;50.566;9.774;2023-03-08T02:06:25;1.50;99.90
12926;DHT22;6529;50.566;9.774;2023-03-08T02:08:52;1.50;99.90
12926;DHT22;6529;50.566;9.774;2023-03-08T02:11:19;1.40;99.90
12926;DHT22;6529;50.566;9.774;2023-03-08T02:13:47;1.30;99.90
12926;DHT22;6529;50.566;9.774;2023-03-08T02:16:15;1.30;99.90
12926;DHT22;6529;50.566;9.774;2023-03-08T02:18:56;1.30;99.90
12926;DHT22;6529;50.566;9.774;2023-03-08T02:21:22;1.30;99.90
12926;DHT22;6529;50.566;9.774;2023-03-08T02:23:48;1.30;99.90
12926;DHT22;6529;50.566;9.774;2023-03-08T02:26:14;1.30;99.90
12926;DHT22;6529;50.566;9.774;2023-03-08T02:28:40;1.30;99.90
12926;DHT22;6529;50.566;9.774;2023-03-08T02:31:06;1.40;99.90
12926;DHT22;6529;50.566;9.774;2023-03-08T02:33:32;1.30;99.90
12926;DHT22;6529;50.566;9.774;2023-03-08T02:36:02;1.30;99.90
12926;DHT22;6529;50.566;9.774;2023-03-08T02:38:28;1.30;99.90
12926;DHT22;6529;50.566;9.774;2023-03-08T02:40:53;1.40;99.90
12926;DHT22;6529;50.566;9.774;2023-03-08T02:43:20;1.30;99.90
12926;DHT22;6529;50.566;9.774;2023-03-08T02:45:46;1.40;99.90
12926;DHT22;6529;50.566;9.774;2023-03-08T02:48:12;1.40;99.90
12926;DHT22;6529;50.566;9.774;2023-03-08T02:50:38;1.40;99.90
12926;DHT22;6529;50.566;9.774;2023-03-08T02:53:04;1.30;99.90
12926;DHT22;6529;50.566;9.774;2023-03-08T02:55:30;1.30;99.90
12926;DHT22;6529;50.566;9.774;2023-03-08T02:57:55;1.30;99.90
12926;DHT22;6529;50.566;9.774;2023-03-08T03:00:21;1.20;99.90
12926;DHT22;6529;50.566;9.774;2023-03-08T03:02:47;1.20;99.90
12926;DHT22;6529;50.566;9.774;2023-03-08T03:05:13;1.30;99.90
12926;DHT22;6529;50.566;9.774;2023-03-08T03:07:40;1.30;99.90
12926;DHT22;6529;50.566;9.774;2023-03-08T03:10:07;1.30;99.90
12926;DHT22;6529;50.566;9.774;2023-03-08T03:12:33;1.30;99.90
12926;DHT22;6529;50.566;9.774;2023-03-08T03:15:04;1.30;99.90
12926;DHT22;6529;50.566;9.774;2023-03-08T03:17:30;1.30;99.90
12926;DHT22;6529;50.566;9.774;2023-03-08T03:19:56;1.30;99.90
12926;DHT22;6529;50.566;9.774;2023-03-08T03:22:21;1.20;99.90
12926;DHT22;6529;50.566;9.774;2023-03-08T03:24:51;1.20;99.90
12926;DHT22;6529;50.566;9.774;2023-03-08T03:27:17;1.20;99.90
12926;DHT22;6529;50.566;9.774;2023-03-08T03:29:43;1.20;99.90
12926;DHT22;6529;50.566;9.774;2023-03-08T03:32:09;1.20;99.90
12926;DHT22;6529;50.566;9.774;2023-03-08T03:34:34;1.10;99.90
12926;DHT22;6529;50.566;9.774;2023-03-08T03:37:00;1.10;99.90
12926;DHT22;6529;50.566;9.774;2023-03-08T03:39:25;1.20;99.90
12926;DHT22;6529;50.566;9.774;2023-03-08T03:41:51;1.20;99.90
12926;DHT22;6529;50.566;9.774;2023-03-08T03:44:17;1.20;99.90
12926;DHT22;6529;50.566;9.774;2023-03-08T03:46:42;1.20;99.90
12926;DHT22;6529;50.566;9.774;2023-03-08T03:49:08;1.20;99.90
12926;DHT22;6529;50.566;9.774;2023-03-08T03:51:33;1.20;99.90
12926;DHT22;6529;50.566;9.774;2023-03-08T03:53:59;1.10;99.90
12926;DHT22;6529;50.566;9.774;2023-03-08T03:56:25;1.10;99.90
12926;DHT22;6529;50.566;9.774;2023-03-08T03:58:52;1.10;99.90
12926;DHT22;6529;50.566;9.774;2023-03-08T04:01:26;1.10;99.90
12926;DHT22;6529;50.566;9.774;2023-03-08T04:03:53;1.20;99.90
12926;DHT22;6529;50.566;9.774;2023-03-08T04:06:21;1.20;99.90
12926;DHT22;6529;50.566;9.774;2023-03-08T04:08:47;1.20;99.90
12926;DHT22;6529;50.566;9.774;2023-03-08T04:11:16;1.20;99.90
12926;DHT22;6529;50.566;9.774;2023-03-08T04:13:42;1.30;99.90
12926;DHT22;6529;50.566;9.774;2023-03-08T04:16:22;1.20;99.90
12926;DHT22;6529;50.566;9.774;2023-03-08T04:18:52;1.20;99.90
12926;DHT22;6529;50.566;9.774;2023-03-08T04:21:20;1.10;99.90
12926;DHT22;6529;50.566;9.774;2023-03-08T04:23:46;1.20;99.90
12926;DHT22;6529;50.566;9.774;2023-03-08T04:26:12;1.10;99.90
12926;DHT22;6529;50.566;9.774;2023-03-08T04:28:38;1.10;99.90
12926;DHT22;6529;50.566;9.774;2023-03-08T04:31:19;1.10;99.90
12926;DHT22;6529;50.566;9.774;2023-03-08T04:33:45;1.00;99.90
12926;DHT22;6529;50.566;9.774;2023-03-08T04:36:12;0.90;99.90
12926;DHT22;6529;50.566;9.774;2023-03-08T04:38:38;0.90;99.90
12926;DHT22;6529;50.566;9.774;2023-03-08T04:41:03;1.00;99.90
12926;DHT22;6529;50.566;9.774;2023-03-08T04:43:40;1.00;99.90
12926;DHT22;6529;50.566;9.774;2023-03-08T04:46:08;1.00;99.90
12926;DHT22;6529;50.566;9.774;2023-03-08T04:48:33;1.00;99.90
12926;DHT22;6529;50.566;9.774;2023-03-08T04:51:01;1.00;99.90
12926;DHT22;6529;50.566;9.774;2023-03-08T04:53:28;1.00;99.90
12926;DHT22;6529;50.566;9.774;2023-03-08T04:55:54;1.00;99.90
12926;DHT22;6529;50.566;9.774;2023-03-08T04:58:20;0.90;99.90
12926;DHT22;6529;50.566;9.774;2023-03-08T05:00:46;1.00;99.90
12926;DHT22;6529;50.566;9.774;2023-03-08T05:03:12;1.00;99.90
12926;DHT22;6529;50.566;9.774;2023-03-08T05:05:46;1.00;99.90
12926;DHT22;6529;50.566;9.774;2023-03-08T05:10:37;1.00;99.90
12926;DHT22;6529;50.566;9.774;2023-03-08T05:13:02;0.90;99.90
12926;DHT22;6529;50.566;9.774;2023-03-08T05:15:28;0.90;99.90
12926;DHT22;6529;50.566;9.774;2023-03-08T05:17:54;0.80;99.90
12926;DHT22;6529;50.566;9.774;2023-03-08T05:20:19;0.90;99.90
12926;DHT22;6529;50.566;9.774;2023-03-08T05:22:45;0.80;99.90
12926;DHT22;6529;50.566;9.774;2023-03-08T05:25:10;0.80;99.90
12926;DHT22;6529;50.566;9.774;2023-03-08T05:27:36;0.90;99.90
12926;DHT22;6529;50.566;9.774;2023-03-08T05:30:05;0.90;99.90
12926;DHT22;6529;50.566;9.774;2023-03-08T05:32:31;1.00;99.90
12926;DHT22;6529;50.566;9.774;2023-03-08T05:34:56;1.00;99.90
12926;DHT22;6529;50.566;9.774;2023-03-08T05:37:22;1.00;99.90
12926;DHT22;6529;50.566;9.774;2023-03-08T05:39:50;1.00;99.90
12926;DHT22;6529;50.566;9.774;2023-03-08T05:42:16;1.00;99.90
12926;DHT22;6529;50.566;9.774;2023-03-08T05:44:42;0.90;99.90
12926;DHT22;6529;50.566;9.774;2023-03-08T05:47:08;0.90;99.90
12926;DHT22;6529;50.566;9.774;2023-03-08T05:49:33;0.90;99.90
12926;DHT22;6529;50.566;9.774;2023-03-08T05:51:59;1.00;99.90
12926;DHT22;6529;50.566;9.774;2023-03-08T05:54:24;1.00;99.90
12926;DHT22;6529;50.566;9.774;2023-03-08T05:56:50;1.00;99.90
12926;DHT22;6529;50.566;9.774;2023-03-08T05:59:15;1.00;99.90
12926;DHT22;6529;50.566;9.774;2023-03-08T06:01:41;1.00;99.90
12926;DHT22;6529;50.566;9.774;2023-03-08T06:04:07;1.00;99.90
12926;DHT22;6529;50.566;9.774;2023-03-08T06:06:32;1.00;99.90
12926;DHT22;6529;50.566;9.774;2023-03-08T06:08:58;1.00;99.90
12926;DHT22;6529;50.566;9.774;2023-03-08T06:11:23;1.70;99.90
12926;DHT22;6529;50.566;9.774;2023-03-08T06:13:49;2.60;99.90
12926;DHT22;6529;50.566;9.774;2023-03-08T06:16:15;3.20;99.90
12926;DHT22;6529;50.566;9.774;2023-03-08T06:18:41;3.60;99.90
12926;DHT22;6529;50.566;9.774;2023-03-08T06:21:18;3.50;99.90
12926;DHT22;6529;50.566;9.774;2023-03-08T06:23:44;3.00;99.90
12926;DHT22;6529;50.566;9.774;2023-03-08T06:26:10;2.60;99.90
12926;DHT22;6529;50.566;9.774;2023-03-08T06:28:36;2.20;99.90
12926;DHT22;6529;50.566;9.774;2023-03-08T06:31:04;2.00;99.90
12926;DHT22;6529;50.566;9.774;2023-03-08T06:33:32;1.70;99.90
12926;DHT22;6529;50.566;9.774;2023-03-08T06:36:03;1.50;99.90
12926;DHT22;6529;50.566;9.774;2023-03-08T06:38:31;1.50;99.90
12926;DHT22;6529;50.566;9.774;2023-03-08T06:40:57;1.40;99.90
12926;DHT22;6529;50.566;9.774;2023-03-08T06:43:23;1.50;99.90
12926;DHT22;6529;50.566;9.774;2023-03-08T06:45:49;1.40;99.90
12926;DHT22;6529;50.566;9.774;2023-03-08T06:48:15;1.40;99.90
12926;DHT22;6529;50.566;9.774;2023-03-08T06:50:41;1.40;99.90
12926;DHT22;6529;50.566;9.774;2023-03-08T06:53:07;1.30;99.90
12926;DHT22;6529;50.566;9.774;2023-03-08T06:55:37;1.30;99.90
12926;DHT22;6529;50.566;9.774;2023-03-08T06:58:03;1.40;99.90
12926;DHT22;6529;50.566;9.774;2023-03-08T07:00:29;1.40;99.90
12926;DHT22;6529;50.566;9.774;2023-03-08T07:02:55;1.40;99.90
12926;DHT22;6529;50.566;9.774;2023-03-08T07:05:21;1.40;99.90
12926;DHT22;6529;50.566;9.774;2023-03-08T07:07:47;1.50;99.90
12926;DHT22;6529;50.566;9.774;2023-03-08T07:10:14;1.50;99.90
12926;DHT22;6529;50.566;9.774;2023-03-08T07:12:41;1.50;99.90
12926;DHT22;6529;50.566;9.774;2023-03-08T07:15:11;1.50;99.90
12926;DHT22;6529;50.566;9.774;2023-03-08T07:17:39;1.50;99.90
12926;DHT22;6529;50.566;9.774;2023-03-08T07:20:06;1.50;99.90
12926;DHT22;6529;50.566;9.774;2023-03-08T07:22:32;1.50;99.90
12926;DHT22;6529;50.566;9.774;2023-03-08T07:24:57;1.50;99.90
12926;DHT22;6529;50.566;9.774;2023-03-08T07:27:23;1.50;99.90
12926;DHT22;6529;50.566;9.774;2023-03-08T07:29:49;1.50;99.90
12926;DHT22;6529;50.566;9.774;2023-03-08T07:32:15;1.50;99.90
12926;DHT22;6529;50.566;9.774;2023-03-08T07:34:40;1.50;99.90
12926;DHT22;6529;50.566;9.774;2023-03-08T07:37:14;1.50;99.90
12926;DHT22;6529;50.566;9.774;2023-03-08T07:39:40;1.50;99.90
12926;DHT22;6529;50.566;9.774;2023-03-08T07:42:06;1.50;99.90
12926;DHT22;6529;50.566;9.774;2023-03-08T07:44:31;1.50;99.90
12926;DHT22;6529;50.566;9.774;2023-03-08T07:46:57;1.50;99.90
12926;DHT22;6529;50.566;9.774;2023-03-08T07:49:23;1.60;99.90
12926;DHT22;6529;50.566;9.774;2023-03-08T07:51:48;1.80;99.90
12926;DHT22;6529;50.566;9.774;2023-03-08T07:54:16;1.80;99.90
12926;DHT22;6529;50.566;9.774;2023-03-08T07:56:41;1.90;99.90
12926;DHT22;6529;50.566;9.774;2023-03-08T07:59:07;1.90;99.90
12926;DHT22;6529;50.566;9.774;2023-03-08T08:01:32;2.00;99.90
12926;DHT22;6529;50.566;9.774;2023-03-08T08:03:59;2.00;99.90
12926;DHT22;6529;50.566;9.774;2023-03-08T08:06:25;2.00;99.90
12926;DHT22;6529;50.566;9.774;2023-03-08T08:08:51;2.00;99.90
12926;DHT22;6529;50.566;9.774;2023-03-08T08:11:17;1.90;99.90
12926;DHT22;6529;50.566;9.774;2023-03-08T08:13:44;2.00;99.90
12926;DHT22;6529;50.566;9.774;2023-03-08T08:16:12;2.00;99.90
12926;DHT22;6529;50.566;9.774;2023-03-08T08:18:38;2.00;99.90
12926;DHT22;6529;50.566;9.774;2023-03-08T08:21:06;2.00;99.90
12926;DHT22;6529;50.566;9.774;2023-03-08T08:23:33;2.10;99.90
12926;DHT22;6529;50.566;9.774;2023-03-08T08:25:59;2.20;99.90
12926;DHT22;6529;50.566;9.774;2023-03-08T08:28:25;2.20;99.90
12926;DHT22;6529;50.566;9.774;2023-03-08T08:30:59;2.10;99.90
12926;DHT22;6529;50.566;9.774;2023-03-08T08:33:27;2.10;99.90
12926;DHT22;6529;50.566;9.774;2023-03-08T08:35:52;2.10;99.90
12926;DHT22;6529;50.566;9.774;2023-03-08T08:38:18;2.10;99.90
12926;DHT22;6529;50.566;9.774;2023-03-08T08:40:44;2.10;99.90
12926;DHT22;6529;50.566;9.774;2023-03-08T08:43:09;2.10;99.90
12926;DHT22;6529;50.566;9.774;2023-03-08T08:45:35;2.00;99.90
12926;DHT22;6529;50.566;9.774;2023-03-08T08:48:00;2.10;99.90
12926;DHT22;6529;50.566;9.774;2023-03-08T08:50:26;2.20;99.90
12926;DHT22;6529;50.566;9.774;2023-03-08T08:52:52;2.20;99.90
12926;DHT22;6529;50.566;9.774;2023-03-08T08:55:17;2.20;99.90
12926;DHT22;6529;50.566;9.774;2023-03-08T08:57:43;2.20;99.90
12926;DHT22;6529;50.566;9.774;2023-03-08T09:00:09;2.10;99.90
12926;DHT22;6529;50.566;9.774;2023-03-08T09:02:35;2.10;99.90
12926;DHT22;6529;50.566;9.774;2023-03-08T09:05:01;2.00;99.90
12926;DHT22;6529;50.566;9.774;2023-03-08T09:07:26;2.00;99.90
12926;DHT22;6529;50.566;9.774;2023-03-08T09:09:55;2.00;99.90
12926;DHT22;6529;50.566;9.774;2023-03-08T09:12:21;1.90;99.90
12926;DHT22;6529;50.566;9.774;2023-03-08T09:14:46;2.00;99.90
12926;DHT22;6529;50.566;9.774;2023-03-08T09:17:12;2.00;99.90
12926;DHT22;6529;50.566;9.774;2023-03-08T09:19:37;2.00;99.90
12926;DHT22;6529;50.566;9.774;2023-03-08T09:22:03;2.00;99.90
12926;DHT22;6529;50.566;9.774;2023-03-08T09:24:29;2.00;99.90
12926;DHT22;6529;50.566;9.774;2023-03-08T09:26:54;2.10;99.90
12926;DHT22;6529;50.566;9.774;2023-03-08T09:29:20;2.00;99.90
12926;DHT22;6529;50.566;9.774;2023-03-08T09:31:45;2.00;99.90
12926;DHT22;6529;50.566;9.774;2023-03-08T09:34:12;2.00;99.90
12926;DHT22;6529;50.566;9.774;2023-03-08T09:36:39;1.90;99.90
12926;DHT22;6529;50.566;9.774;2023-03-08T09:39:06;1.80;99.90
12926;DHT22;6529;50.566;9.774;2023-03-08T09:47:07;1.70;99.90
12926;DHT22;6529;50.566;9.774;2023-03-08T09:49:38;1.70;99.90
12926;DHT22;6529;50.566;9.774;2023-03-08T09:54:38;1.60;99.90
12926;DHT22;6529;50.566;9.774;2023-03-08T09:57:13;1.70;99.90
12926;DHT22;6529;50.566;9.774;2023-03-08T09:59:50;1.60;99.90
12926;DHT22;6529;50.566;9.774;2023-03-08T10:07:59;1.70;99.90
12926;DHT22;6529;50.566;9.774;2023-03-08T10:13:32;1.90;99.90
12926;DHT22;6529;50.566;9.774;2023-03-08T10:16:11;2.00;99.90
12926;DHT22;6529;50.566;9.774;2023-03-08T10:21:14;2.00;99.90
12926;DHT22;6529;50.566;9.774;2023-03-08T10:23:44;2.00;99.90
12926;DHT22;6529;50.566;9.774;2023-03-08T10:26:11;2.00;99.90
12926;DHT22;6529;50.566;9.774;2023-03-08T10:28:38;2.00;99.90
12926;DHT22;6529;50.566;9.774;2023-03-08T10:31:25;2.10;99.90
12926;DHT22;6529;50.566;9.774;2023-03-08T10:34:00;2.10;99.90
12926;DHT22;6529;50.566;9.774;2023-03-08T10:36:26;2.20;99.90
12926;DHT22;6529;50.566;9.774;2023-03-08T10:39:08;2.30;99.90
12926;DHT22;6529;50.566;9.774;2023-03-08T10:41:42;2.30;99.90
12926;DHT22;6529;50.566;9.774;2023-03-08T10:44:13;2.30;99.90
12926;DHT22;6529;50.566;9.774;2023-03-08T10:46:46;2.40;99.90
12926;DHT22;6529;50.566;9.774;2023-03-08T10:49:17;2.40;99.90
12926;DHT22;6529;50.566;9.774;2023-03-08T10:51:57;2.40;99.90
12926;DHT22;6529;50.566;9.774;2023-03-08T10:54:24;2.50;99.90
12926;DHT22;6529;50.566;9.774;2023-03-08T10:56:58;2.50;99.90
12926;DHT22;6529;50.566;9.774;2023-03-08T10:59:29;2.50;99.90
12926;DHT22;6529;50.566;9.774;2023-03-08T11:02:01;2.50;99.90
12926;DHT22;6529;50.566;9.774;2023-03-08T11:04:29;2.50;99.90
12926;DHT22;6529;50.566;9.774;2023-03-08T11:06:54;2.50;99.90
12926;DHT22;6529;50.566;9.774;2023-03-08T11:09:30;2.50;99.90
12926;DHT22;6529;50.566;9.774;2023-03-08T11:12:01;2.70;99.90
12926;DHT22;6529;50.566;9.774;2023-03-08T11:14:28;2.70;99.90
12926;DHT22;6529;50.566;9.774;2023-03-08T11:33:11;2.50;99.90
12926;DHT22;6529;50.566;9.774;2023-03-08T11:38:30;2.60;99.90
12926;DHT22;6529;50.566;9.774;2023-03-08T11:52:26;2.70;99.90
12926;DHT22;6529;50.566;9.774;2023-03-08T11:55:16;2.80;99.90
12926;DHT22;6529;50.566;9.774;2023-03-08T11:57:53;2.80;99.90
12926;DHT22;6529;50.566;9.774;2023-03-08T12:00:39;2.80;99.90
12926;DHT22;6529;50.566;9.774;2023-03-08T12:05:45;3.00;99.90
12926;DHT22;6529;50.566;9.774;2023-03-08T12:08:17;3.00;99.90
12926;DHT22;6529;50.566;9.774;2023-03-08T12:11:04;2.90;99.90
12926;DHT22;6529;50.566;9.774;2023-03-08T12:13:35;2.90;99.90
12926;DHT22;6529;50.566;9.774;2023-03-08T12:18:53;2.90;99.90
12926;DHT22;6529;50.566;9.774;2023-03-08T12:27:05;2.80;99.90
12926;DHT22;6529;50.566;9.774;2023-03-08T12:29:43;2.90;99.90
12926;DHT22;6529;50.566;9.774;2023-03-08T12:32:12;2.90;99.90
12926;DHT22;6529;50.566;9.774;2023-03-08T12:34:41;2.90;99.90
12926;DHT22;6529;50.566;9.774;2023-03-08T12:37:24;2.90;99.90
12926;DHT22;6529;50.566;9.774;2023-03-08T12:42:40;3.00;99.90
12926;DHT22;6529;50.566;9.774;2023-03-08T12:48:17;3.30;99.90
12926;DHT22;6529;50.566;9.774;2023-03-08T12:53:31;3.30;99.90
12926;DHT22;6529;50.566;9.774;2023-03-08T12:56:05;3.30;99.90
12926;DHT22;6529;50.566;9.774;2023-03-08T13:01:42;3.30;99.90
12926;DHT22;6529;50.566;9.774;2023-03-08T13:09:31;3.30;99.90
12926;DHT22;6529;50.566;9.774;2023-03-08T13:14:42;3.40;99.90
12926;DHT22;6529;50.566;9.774;2023-03-08T13:20:28;3.40;99.90
12926;DHT22;6529;50.566;9.774;2023-03-08T13:23:32;3.40;99.90
12926;DHT22;6529;50.566;9.774;2023-03-08T13:28:38;3.30;99.90
12926;DHT22;6529;50.566;9.774;2023-03-08T13:31:22;3.30;99.90
12926;DHT22;6529;50.566;9.774;2023-03-08T13:33:51;3.30;99.90
12926;DHT22;6529;50.566;9.774;2023-03-08T13:36:27;3.30;99.90
12926;DHT22;6529;50.566;9.774;2023-03-08T13:39:02;3.40;99.90
12926;DHT22;6529;50.566;9.774;2023-03-08T13:41:38;3.40;99.90
12926;DHT22;6529;50.566;9.774;2023-03-08T13:44:13;3.50;99.90
12926;DHT22;6529;50.566;9.774;2023-03-08T13:46:40;3.50;99.90
12926;DHT22;6529;50.566;9.774;2023-03-08T13:49:19;3.50;99.90
12926;DHT22;6529;50.566;9.774;2023-03-08T13:51:49;3.40;99.90
12926;DHT22;6529;50.566;9.774;2023-03-08T13:54:22;3.30;99.90
12926;DHT22;6529;50.566;9.774;2023-03-08T13:56:54;3.30;99.90
12926;DHT22;6529;50.566;9.774;2023-03-08T13:59:20;3.20;99.90
12926;DHT22;6529;50.566;9.774;2023-03-08T14:01:50;3.10;99.90
12926;DHT22;6529;50.566;9.774;2023-03-08T14:04:19;3.20;99.90
12926;DHT22;6529;50.566;9.774;2023-03-08T14:06:50;3.20;99.90
12926;DHT22;6529;50.566;9.774;2023-03-08T14:09:16;3.20;99.90
12926;DHT22;6529;50.566;9.774;2023-03-08T14:11:43;3.20;99.90
12926;DHT22;6529;50.566;9.774;2023-03-08T14:14:27;3.20;99.90
12926;DHT22;6529;50.566;9.774;2023-03-08T14:16:53;3.20;99.90
12926;DHT22;6529;50.566;9.774;2023-03-08T14:19:28;3.10;99.90
12926;DHT22;6529;50.566;9.774;2023-03-08T14:22:02;3.10;99.90
12926;DHT22;6529;50.566;9.774;2023-03-08T14:24:33;3.10;99.90
12926;DHT22;6529;50.566;9.774;2023-03-08T14:27:28;3.10;99.90
12926;DHT22;6529;50.566;9.774;2023-03-08T14:30:09;3.10;99.90
12926;DHT22;6529;50.566;9.774;2023-03-08T14:32:36;3.10;99.90
12926;DHT22;6529;50.566;9.774;2023-03-08T14:35:15;3.10;99.90
12926;DHT22;6529;50.566;9.774;2023-03-08T14:37:43;3.10;99.90
12926;DHT22;6529;50.566;9.774;2023-03-08T14:40:23;3.10;99.90
12926;DHT22;6529;50.566;9.774;2023-03-08T14:42:54;3.10;99.90
12926;DHT22;6529;50.566;9.774;2023-03-08T14:45:27;3.10;99.90
12926;DHT22;6529;50.566;9.774;2023-03-08T14:47:56;3.20;99.90
12926;DHT22;6529;50.566;9.774;2023-03-08T14:50:29;3.30;99.90
12926;DHT22;6529;50.566;9.774;2023-03-08T14:52:57;3.30;99.90
12926;DHT22;6529;50.566;9.774;2023-03-08T14:55:28;3.40;99.90
12926;DHT22;6529;50.566;9.774;2023-03-08T14:58:00;3.40;99.90
12926;DHT22;6529;50.566;9.774;2023-03-08T15:00:27;3.30;99.90
12926;DHT22;6529;50.566;9.774;2023-03-08T15:02:55;3.30;99.90
12926;DHT22;6529;50.566;9.774;2023-03-08T15:05:22;3.20;99.90
12926;DHT22;6529;50.566;9.774;2023-03-08T15:07:49;3.10;99.90
12926;DHT22;6529;50.566;9.774;2023-03-08T15:10:35;3.20;99.90
12926;DHT22;6529;50.566;9.774;2023-03-08T15:13:06;3.10;99.90
12926;DHT22;6529;50.566;9.774;2023-03-08T15:15:34;3.10;99.90
12926;DHT22;6529;50.566;9.774;2023-03-08T15:18:00;3.10;99.90
12926;DHT22;6529;50.566;9.774;2023-03-08T15:20:25;3.20;99.90
12926;DHT22;6529;50.566;9.774;2023-03-08T15:22:54;3.20;99.90
12926;DHT22;6529;50.566;9.774;2023-03-08T15:25:24;3.20;99.90
12926;DHT22;6529;50.566;9.774;2023-03-08T15:27:50;3.20;99.90
12926;DHT22;6529;50.566;9.774;2023-03-08T15:30:24;3.20;99.90
12926;DHT22;6529;50.566;9.774;2023-03-08T15:32:50;3.30;99.90
12926;DHT22;6529;50.566;9.774;2023-03-08T15:35:16;3.30;99.90
12926;DHT22;6529;50.566;9.774;2023-03-08T15:37:42;3.30;99.90
12926;DHT22;6529;50.566;9.774;2023-03-08T15:40:14;3.30;99.90
12926;DHT22;6529;50.566;9.774;2023-03-08T15:42:40;3.30;99.90
12926;DHT22;6529;50.566;9.774;2023-03-08T15:45:07;3.30;99.90
12926;DHT22;6529;50.566;9.774;2023-03-08T15:47:33;3.30;99.90
12926;DHT22;6529;50.566;9.774;2023-03-08T15:49:58;3.30;99.90
12926;DHT22;6529;50.566;9.774;2023-03-08T15:52:26;3.30;99.90
12926;DHT22;6529;50.566;9.774;2023-03-08T15:54:52;3.30;99.90
12926;DHT22;6529;50.566;9.774;2023-03-08T15:57:17;3.30;99.90
12926;DHT22;6529;50.566;9.774;2023-03-08T15:59:43;3.30;99.90
12926;DHT22;6529;50.566;9.774;2023-03-08T16:02:17;3.30;99.90
12926;DHT22;6529;50.566;9.774;2023-03-08T16:04:43;3.30;99.90
12926;DHT22;6529;50.566;9.774;2023-03-08T16:07:17;3.30;99.90
12926;DHT22;6529;50.566;9.774;2023-03-08T16:09:44;3.30;99.90
12926;DHT22;6529;50.566;9.774;2023-03-08T16:12:11;3.20;99.90
12926;DHT22;6529;50.566;9.774;2023-03-08T16:14:36;3.10;99.90
12926;DHT22;6529;50.566;9.774;2023-03-08T16:17:03;3.10;99.90
12926;DHT22;6529;50.566;9.774;2023-03-08T16:19:33;3.10;99.90
12926;DHT22;6529;50.566;9.774;2023-03-08T16:22:00;3.10;99.90
12926;DHT22;6529;50.566;9.774;2023-03-08T16:24:26;3.20;99.90
12926;DHT22;6529;50.566;9.774;2023-03-08T16:26:52;3.10;99.90
12926;DHT22;6529;50.566;9.774;2023-03-08T16:29:17;3.10;99.90
12926;DHT22;6529;50.566;9.774;2023-03-08T16:31:43;3.00;99.90
12926;DHT22;6529;50.566;9.774;2023-03-08T16:34:09;3.10;99.90
12926;DHT22;6529;50.566;9.774;2023-03-08T16:36:35;3.00;99.90
12926;DHT22;6529;50.566;9.774;2023-03-08T16:39:01;3.00;99.90
12926;DHT22;6529;50.566;9.774;2023-03-08T16:41:27;2.90;99.90
12926;DHT22;6529;50.566;9.774;2023-03-08T16:43:54;2.90;99.90
12926;DHT22;6529;50.566;9.774;2023-03-08T16:46:21;2.90;99.90
12926;DHT22;6529;50.566;9.774;2023-03-08T16:48:48;2.90;99.90
12926;DHT22;6529;50.566;9.774;2023-03-08T16:51:16;2.90;99.90
12926;DHT22;6529;50.566;9.774;2023-03-08T16:53:42;2.90;99.90
12926;DHT22;6529;50.566;9.774;2023-03-08T16:56:08;2.90;99.90
12926;DHT22;6529;50.566;9.774;2023-03-08T16:58:35;3.00;99.90
12926;DHT22;6529;50.566;9.774;2023-03-08T17:01:00;3.00;99.90
12926;DHT22;6529;50.566;9.774;2023-03-08T17:03:26;3.00;99.90
12926;DHT22;6529;50.566;9.774;2023-03-08T17:05:51;3.00;99.90
12926;DHT22;6529;50.566;9.774;2023-03-08T17:08:17;3.00;99.90
12926;DHT22;6529;50.566;9.774;2023-03-08T17:10:43;3.10;99.90
12926;DHT22;6529;50.566;9.774;2023-03-08T17:13:10;3.10;99.90
12926;DHT22;6529;50.566;9.774;2023-03-08T17:15:44;3.20;99.90
12926;DHT22;6529;50.566;9.774;2023-03-08T17:18:11;3.30;99.90
12926;DHT22;6529;50.566;9.774;2023-03-08T17:20:41;3.30;99.90
12926;DHT22;6529;50.566;9.774;2023-03-08T17:23:08;3.30;99.90
12926;DHT22;6529;50.566;9.774;2023-03-08T17:25:34;3.40;99.90
12926;DHT22;6529;50.566;9.774;2023-03-08T17:28:02;3.40;99.90
12926;DHT22;6529;50.566;9.774;2023-03-08T17:30:28;3.40;99.90
12926;DHT22;6529;50.566;9.774;2023-03-08T17:32:54;3.40;99.90
12926;DHT22;6529;50.566;9.774;2023-03-08T17:35:19;3.30;99.90
12926;DHT22;6529;50.566;9.774;2023-03-08T17:37:45;3.30;99.90
12926;DHT22;6529;50.566;9.774;2023-03-08T17:40:12;3.20;99.90
12926;DHT22;6529;50.566;9.774;2023-03-08T17:42:37;3.20;99.90
12926;DHT22;6529;50.566;9.774;2023-03-08T17:45:04;3.20;99.90
12926;DHT22;6529;50.566;9.774;2023-03-08T17:47:37;3.20;99.90